Time;durP1;ratioP1;P1;durP2;ratioP2;P2;SDS_P1;SDS_P2;PMS_P1;PMS_P2;Temp;Humidity;BMP_temperature;BMP_pressure;BME280_temperature;BME280_humidity;BME280_pressure;Samples;Min_cycle;Max_cycle;Signal;HPM_P1;HPM_P2
2023/09/23 00:00:36;;;;;;;1.20;0.70;;;16.90;52.60;;;;;;21300;6661;68645;31
2023/09/23 00:03:00;;;;;;;1.80;0.70;;;16.90;52.80;;;;;;21292;6661;70818;31
2023/09/23 00:05:26;;;;;;;1.10;0.87;;;16.70;53.10;;;;;;21300;6661;68576;31
2023/09/23 00:07:52;;;;;;;0.80;0.80;;;16.50;53.40;;;;;;21300;6661;66457;31
2023/09/23 00:10:17;;;;;;;2.10;1.10;;;16.40;53.80;;;;;;21081;6661;302068;31
2023/09/23 00:12:43;;;;;;;4.43;1.00;;;16.60;53.30;;;;;;21303;6661;72739;31
2023/09/23 00:15:10;;;;;;;1.58;0.95;;;16.70;53.20;;;;;;21080;6661;302440;31
2023/09/23 00:17:37;;;;;;;0.80;0.80;;;16.90;53.00;;;;;;21298;6661;70509;31
2023/09/23 00:20:14;;;;;;;0.57;0.57;;;16.90;53.00;;;;;;21298;6661;66355;31
2023/09/23 00:22:31;;;;;;;1.37;0.87;;;16.70;53.10;;;;;;21276;6661;73212;31
2023/09/23 00:24:58;;;;;;;3.00;0.80;;;16.60;53.50;;;;;;21306;6661;67598;31
2023/09/23 00:27:24;;;;;;;0.67;0.67;;;16.50;53.80;;;;;;21253;6661;66616;31
2023/09/23 00:29:49;;;;;;;2.00;1.00;;;16.40;54.10;;;;;;21073;6661;302072;31
2023/09/23 00:32:17;;;;;;;1.10;1.00;;;16.60;53.70;;;;;;21282;6661;71150;31
2023/09/23 00:34:40;;;;;;;0.82;0.77;;;16.70;53.70;;;;;;21063;6661;273030;31
2023/09/23 00:37:08;;;;;;;0.90;0.80;;;16.90;53.70;;;;;;21297;6661;66854;31
2023/09/23 00:39:39;;;;;;;1.63;0.77;;;16.90;53.60;;;;;;21296;6661;89021;31
2023/09/23 00:41:58;;;;;;;1.40;0.93;;;16.70;53.90;;;;;;21067;6661;332208;31
2023/09/23 00:44:24;;;;;;;0.80;0.80;;;16.90;53.80;;;;;;21297;6659;66819;31
2023/09/23 00:46:49;;;;;;;1.95;0.93;;;16.90;53.80;;;;;;21089;6660;302377;31
2023/09/23 00:49:14;;;;;;;1.08;1.00;;;17.00;53.00;;;;;;21055;6660;332077;31
2023/09/23 00:51:40;;;;;;;1.55;1.02;;;17.30;52.50;;;;;;21082;6660;303194;31
2023/09/23 00:54:07;;;;;;;0.80;0.70;;;17.50;52.00;;;;;;21300;6660;66785;31
2023/09/23 00:56:33;;;;;;;0.83;0.83;;;17.40;52.30;;;;;;21303;6660;66358;31
2023/09/23 00:58:59;;;;;;;1.30;0.90;;;17.10;52.70;;;;;;21045;6660;302059;31
2023/09/23 01:01:24;;;;;;;1.13;0.83;;;17.10;52.30;;;;;;21298;6660;66385;31
2023/09/23 01:03:49;;;;;;;0.90;0.82;;;17.00;52.40;;;;;;21081;6660;329107;31
2023/09/23 01:06:21;;;;;;;1.12;0.80;;;17.10;52.20;;;;;;21079;6661;302409;31
2023/09/23 01:08:45;;;;;;;1.90;1.00;;;17.20;51.80;;;;;;21073;6661;272578;31
2023/09/23 01:11:09;;;;;;;1.53;0.80;;;17.40;51.10;;;;;;21067;6661;307088;31
2023/09/23 01:13:35;;;;;;;0.90;0.90;;;17.60;50.50;;;;;;21083;6661;317883;31
2023/09/23 01:16:06;;;;;;;0.70;0.70;;;17.70;50.30;;;;;;21303;6661;66779;31
2023/09/23 01:18:28;;;;;;;1.23;0.63;;;17.40;50.70;;;;;;21284;6661;66880;31
2023/09/23 01:20:56;;;;;;;1.20;0.87;;;17.00;51.40;;;;;;21070;6661;302331;31
2023/09/23 01:23:17;;;;;;;0.73;0.73;;;16.90;51.40;;;;;;21282;6661;69273;31
2023/09/23 01:25:42;;;;;;;1.57;0.70;;;16.80;51.60;;;;;;21296;6661;67698;31
2023/09/23 01:28:11;;;;;;;0.83;0.80;;;16.50;52.10;;;;;;21082;6661;273734;31
2023/09/23 01:30:35;;;;;;;0.82;0.80;;;16.60;52.10;;;;;;21079;6661;306683;31
2023/09/23 01:32:59;;;;;;;1.77;0.90;;;16.80;51.60;;;;;;21070;6661;272664;31
2023/09/23 01:35:25;;;;;;;1.33;0.80;;;16.90;51.40;;;;;;21298;6661;66831;31
2023/09/23 01:37:50;;;;;;;1.10;0.90;;;16.70;51.60;;;;;;21085;6661;275579;31
2023/09/23 01:40:17;;;;;;;0.83;0.83;;;16.60;51.70;;;;;;21089;6661;291856;31
2023/09/23 01:42:44;;;;;;;1.23;1.00;;;16.80;51.80;;;;;;21074;6661;305715;31
2023/09/23 01:45:13;;;;;;;1.73;0.73;;;16.90;51.40;;;;;;21078;6661;275712;31
2023/09/23 01:47:35;;;;;;;1.03;0.70;;;16.90;51.00;;;;;;21269;6661;67295;31
2023/09/23 01:50:00;;;;;;;1.00;0.80;;;16.70;51.60;;;;;;21077;6661;331410;31
2023/09/23 01:52:29;;;;;;;1.30;1.13;;;16.60;51.70;;;;;;21294;6661;67105;31
2023/09/23 01:54:52;;;;;;;1.60;1.10;;;16.30;52.00;;;;;;21069;6661;330424;31
2023/09/23 01:57:17;;;;;;;1.00;1.00;;;16.30;52.20;;;;;;21082;6659;274431;31
2023/09/23 01:59:43;;;;;;;3.10;0.77;;;16.50;52.40;;;;;;21304;6660;66439;31
2023/09/23 02:02:09;;;;;;;1.05;0.85;;;16.30;51.90;;;;;;21298;6660;66839;31
2023/09/23 02:04:39;;;;;;;1.23;0.55;;;16.00;52.70;;;;;;21296;6660;67110;31
2023/09/23 02:07:03;;;;;;;1.10;0.50;;;15.70;53.20;;;;;;21292;6660;66840;31
2023/09/23 02:09:28;;;;;;;0.80;0.80;;;15.40;53.60;;;;;;21297;6660;67251;31
2023/09/23 02:11:54;;;;;;;1.03;0.90;;;15.30;54.00;;;;;;21306;6660;67265;31
2023/09/23 02:14:19;;;;;;;1.40;0.87;;;15.10;54.10;;;;;;21081;6660;302475;31
2023/09/23 02:16:47;;;;;;;1.10;1.00;;;15.40;54.30;;;;;;21083;6661;294280;31
2023/09/23 02:19:10;;;;;;;1.03;0.80;;;15.70;53.80;;;;;;21291;6661;66900;31
2023/09/23 02:21:36;;;;;;;0.63;0.63;;;15.70;53.50;;;;;;21282;6661;72922;31
2023/09/23 02:24:02;;;;;;;1.10;0.90;;;15.50;53.70;;;;;;21085;6661;272772;31
2023/09/23 02:26:27;;;;;;;1.40;1.00;;;15.60;53.70;;;;;;21077;6661;274309;31
2023/09/23 02:28:53;;;;;;;1.30;1.10;;;15.90;53.10;;;;;;21084;6661;303276;31
2023/09/23 02:31:19;;;;;;;1.00;1.00;;;16.10;52.90;;;;;;21084;6661;272771;31
2023/09/23 02:33:44;;;;;;;1.97;1.00;;;16.30;52.00;;;;;;21294;6661;66889;31
2023/09/23 02:36:14;;;;;;;1.77;1.20;;;16.00;52.30;;;;;;21077;6661;335365;31
2023/09/23 02:38:36;;;;;;;1.30;0.83;;;16.00;52.90;;;;;;21288;6661;67102;31
2023/09/23 02:41:04;;;;;;;1.67;1.20;;;15.90;53.10;;;;;;21083;6661;276546;31
2023/09/23 02:43:27;;;;;;;1.30;1.20;;;16.00;53.40;;;;;;21085;6661;275157;31
2023/09/23 02:45:53;;;;;;;1.17;1.07;;;16.20;53.10;;;;;;21078;6661;304269;31
2023/09/23 02:48:20;;;;;;;1.70;0.80;;;16.40;52.40;;;;;;21282;6661;68995;31
2023/09/23 02:50:46;;;;;;;2.57;1.07;;;16.20;52.50;;;;;;21284;6661;70580;31
2023/09/23 02:53:11;;;;;;;2.25;1.30;;;15.80;53.10;;;;;;21085;6661;302124;31
2023/09/23 02:55:41;;;;;;;1.90;1.03;;;15.80;53.40;;;;;;21304;6661;80470;31
2023/09/23 02:58:02;;;;;;;1.50;1.00;;;15.70;53.60;;;;;;21056;6661;302583;31
2023/09/23 03:00:30;;;;;;;1.13;1.10;;;15.70;53.50;;;;;;21059;6661;302682;31
2023/09/23 03:02:54;;;;;;;1.00;0.90;;;16.00;52.80;;;;;;21280;6661;67911;31
2023/09/23 03:05:25;;;;;;;2.17;1.30;;;15.80;52.90;;;;;;21063;6661;275309;31
2023/09/23 03:07:48;;;;;;;1.30;1.10;;;15.80;52.90;;;;;;21063;6659;278097;31
2023/09/23 03:10:13;;;;;;;1.10;1.10;;;16.00;52.60;;;;;;21066;6660;279960;31
2023/09/23 03:12:40;;;;;;;1.43;1.00;;;16.20;52.50;;;;;;21062;6660;302164;31
2023/09/23 03:15:10;;;;;;;1.40;1.10;;;16.20;52.30;;;;;;21061;6660;282954;31
2023/09/23 03:17:27;;;;;;;2.83;1.20;;;16.30;52.20;;;;;;21041;6660;306877;31
2023/09/23 03:19:52;;;;;;;2.10;1.20;;;16.40;52.10;;;;;;21075;6660;291575;31
2023/09/23 03:22:21;;;;;;;0.90;0.90;;;16.40;52.00;;;;;;21266;6660;66845;31
2023/09/23 03:24:48;;;;;;;1.20;1.10;;;16.10;52.50;;;;;;21284;6660;68014;31
2023/09/23 03:27:12;;;;;;;1.83;1.20;;;15.70;53.20;;;;;;21070;6660;277363;31
2023/09/23 03:29:37;;;;;;;0.80;0.80;;;15.60;53.20;;;;;;21290;6661;66395;31
2023/09/23 03:32:03;;;;;;;0.80;0.80;;;15.50;53.30;;;;;;21286;6661;69959;31
2023/09/23 03:34:29;;;;;;;1.70;1.13;;;15.20;53.80;;;;;;21066;6661;278910;31
2023/09/23 03:36:54;;;;;;;2.57;0.93;;;15.30;53.80;;;;;;21291;6661;67499;31
2023/09/23 03:39:20;;;;;;;1.23;1.00;;;15.30;53.90;;;;;;21290;6661;71717;31
2023/09/23 03:41:46;;;;;;;1.05;0.95;;;15.00;54.10;;;;;;21295;6661;66833;31
2023/09/23 03:44:14;;;;;;;1.47;1.10;;;14.80;54.60;;;;;;21289;6661;66896;31
2023/09/23 03:46:39;;;;;;;1.60;1.30;;;14.70;55.00;;;;;;21075;6661;273408;31
2023/09/23 03:49:04;;;;;;;1.17;1.07;;;14.90;54.50;;;;;;21297;6661;67224;31
2023/09/23 03:51:31;;;;;;;1.37;1.27;;;14.90;54.40;;;;;;21077;6661;273973;31
2023/09/23 03:53:56;;;;;;;2.03;1.25;;;15.00;54.00;;;;;;21070;6661;302524;31
2023/09/23 03:56:24;;;;;;;1.33;1.27;;;15.30;53.40;;;;;;21076;6661;303993;31
2023/09/23 03:58:49;;;;;;;1.50;1.40;;;15.60;53.00;;;;;;21074;6661;332563;31
2023/09/23 04:01:14;;;;;;;1.10;1.10;;;15.70;52.50;;;;;;21299;6661;70331;31
2023/09/23 04:03:40;;;;;;;1.30;1.20;;;15.50;52.80;;;;;;21076;6661;303081;31
2023/09/23 04:06:05;;;;;;;1.13;1.10;;;15.50;52.80;;;;;;21301;6661;75220;31
2023/09/23 04:08:31;;;;;;;1.40;1.20;;;15.30;53.00;;;;;;21084;6661;302551;31
2023/09/23 04:10:57;;;;;;;0.90;0.90;;;15.40;53.00;;;;;;21302;6661;69340;31
2023/09/23 04:13:22;;;;;;;1.50;1.40;;;15.20;53.20;;;;;;21076;6661;274979;31
2023/09/23 04:15:48;;;;;;;2.58;1.20;;;15.30;53.10;;;;;;21303;6661;71483;31
2023/09/23 04:18:13;;;;;;;0.93;0.93;;;15.10;53.30;;;;;;21297;6661;67956;31
2023/09/23 04:20:40;;;;;;;2.23;1.50;;;14.90;53.80;;;;;;21088;6658;299527;31
2023/09/23 04:23:04;;;;;;;1.70;1.42;;;15.00;54.10;;;;;;21071;6660;273473;31
2023/09/23 04:25:30;;;;;;;1.60;1.50;;;15.30;53.50;;;;;;21092;6660;273984;31
2023/09/23 04:27:55;;;;;;;1.83;1.48;;;15.50;53.00;;;;;;21080;6660;285384;31
2023/09/23 04:30:22;;;;;;;1.00;1.00;;;15.70;52.60;;;;;;21303;6660;66362;31
2023/09/23 04:32:46;;;;;;;1.47;1.20;;;15.40;52.80;;;;;;21295;6660;67238;31
2023/09/23 04:35:16;;;;;;;1.87;1.40;;;15.10;53.50;;;;;;21082;6660;332092;31
2023/09/23 04:37:38;;;;;;;1.73;1.30;;;15.10;53.60;;;;;;21054;6660;305791;31
2023/09/23 04:40:06;;;;;;;1.52;1.00;;;15.30;53.10;;;;;;21306;6661;67506;31
2023/09/23 04:42:29;;;;;;;1.77;1.20;;;15.20;53.30;;;;;;20995;6661;294766;31
2023/09/23 04:44:54;;;;;;;1.00;1.00;;;15.20;53.70;;;;;;21304;6661;71735;31
2023/09/23 04:47:22;;;;;;;1.27;1.00;;;15.10;53.80;;;;;;21083;6661;286679;31
2023/09/23 04:49:48;;;;;;;1.98;1.40;;;15.10;53.50;;;;;;21084;6661;331273;31
2023/09/23 04:52:15;;;;;;;1.42;1.33;;;15.40;52.70;;;;;;21081;6661;302180;31
2023/09/23 04:54:38;;;;;;;1.80;1.43;;;15.50;53.20;;;;;;21086;6661;273447;31
2023/09/23 04:57:03;;;;;;;3.28;1.08;;;15.70;52.00;;;;;;21307;6661;69962;31
2023/09/23 04:59:32;;;;;;;2.40;1.10;;;15.50;52.40;;;;;;21091;6661;304271;31
2023/09/23 05:01:56;;;;;;;0.90;0.90;;;15.50;52.60;;;;;;21296;6661;66352;31
2023/09/23 05:04:20;;;;;;;1.02;0.73;;;15.30;52.70;;;;;;21299;6661;66728;31
2023/09/23 05:06:46;;;;;;;0.90;0.90;;;15.00;53.20;;;;;;21297;6661;68951;31
2023/09/23 05:09:11;;;;;;;1.00;1.00;;;14.70;53.40;;;;;;21083;6661;302436;31
2023/09/23 05:11:37;;;;;;;1.43;1.00;;;14.90;53.00;;;;;;21296;6661;66889;31
2023/09/23 05:14:05;;;;;;;1.10;0.90;;;14.80;53.00;;;;;;21079;6661;278644;31
2023/09/23 05:16:28;;;;;;;1.43;0.80;;;15.00;52.70;;;;;;21291;6661;66451;31
2023/09/23 05:18:53;;;;;;;1.25;1.00;;;14.90;52.70;;;;;;21304;6661;66848;31
2023/09/23 05:21:19;;;;;;;0.93;0.80;;;14.70;53.10;;;;;;21068;6661;297221;31
2023/09/23 05:23:48;;;;;;;1.73;1.07;;;14.80;53.10;;;;;;21295;6661;71832;31
2023/09/23 05:26:12;;;;;;;1.07;1.07;;;14.80;53.10;;;;;;21286;6661;68585;31
2023/09/23 05:28:36;;;;;;;0.70;0.70;;;14.60;53.40;;;;;;21293;6661;66882;31
2023/09/23 05:31:03;;;;;;;0.77;0.75;;;14.40;53.70;;;;;;21084;6659;330330;31
2023/09/23 05:33:27;;;;;;;0.97;0.93;;;14.60;53.40;;;;;;21293;6660;66887;31
2023/09/23 05:35:52;;;;;;;0.73;0.73;;;14.60;53.30;;;;;;21303;6660;68172;31
2023/09/23 05:38:19;;;;;;;0.90;0.90;;;14.50;53.50;;;;;;21084;6660;335613;31
2023/09/23 05:40:43;;;;;;;0.80;0.80;;;14.70;53.00;;;;;;21301;6660;70596;31
2023/09/23 05:43:11;;;;;;;1.90;0.90;;;14.70;53.00;;;;;;21086;6660;278150;31
2023/09/23 05:45:35;;;;;;;1.08;0.98;;;14.90;52.40;;;;;;21071;6660;273898;31
2023/09/23 05:48:02;;;;;;;1.40;0.90;;;15.20;51.70;;;;;;21079;6660;303606;31
2023/09/23 05:50:26;;;;;;;2.43;0.77;;;15.50;51.00;;;;;;21304;6660;66436;31
2023/09/23 05:52:52;;;;;;;1.00;1.00;;;15.40;51.40;;;;;;21078;6661;303182;31
2023/09/23 05:55:17;;;;;;;1.47;1.00;;;15.50;51.00;;;;;;21292;6661;75533;31
2023/09/23 05:57:42;;;;;;;1.50;0.93;;;15.30;51.10;;;;;;21083;6661;273785;31
2023/09/23 06:00:08;;;;;;;0.70;0.70;;;15.40;51.00;;;;;;21300;6661;67171;31
2023/09/23 06:02:34;;;;;;;1.47;1.03;;;15.30;51.20;;;;;;21300;6661;67122;31
2023/09/23 06:05:02;;;;;;;1.60;0.80;;;15.10;51.60;;;;;;21081;6661;302281;31
2023/09/23 06:07:28;;;;;;;1.62;0.88;;;15.20;51.50;;;;;;21074;6661;301535;31
2023/09/23 06:09:53;;;;;;;1.80;0.83;;;15.50;51.00;;;;;;21296;6661;71038;31
2023/09/23 06:12:20;;;;;;;1.10;0.90;;;15.50;51.20;;;;;;21082;6661;276181;31
2023/09/23 06:14:45;;;;;;;1.30;1.20;;;15.50;50.70;;;;;;21079;6661;302929;31
2023/09/23 06:17:10;;;;;;;1.00;0.90;;;15.80;50.40;;;;;;21076;6661;272764;31
2023/09/23 06:19:36;;;;;;;2.08;1.05;;;16.00;50.60;;;;;;21087;6661;296686;31
2023/09/23 06:22:01;;;;;;;2.40;0.90;;;16.10;49.50;;;;;;21305;6661;69605;31
2023/09/23 06:24:27;;;;;;;1.10;0.90;;;16.00;49.90;;;;;;21098;6661;317365;31
2023/09/23 06:26:53;;;;;;;1.00;0.90;;;16.00;49.90;;;;;;21312;6661;66890;31
2023/09/23 06:29:18;;;;;;;1.00;0.90;;;15.90;50.30;;;;;;21094;6661;272495;31
2023/09/23 06:31:44;;;;;;;0.95;0.75;;;15.90;50.30;;;;;;21088;6661;319691;31
2023/09/23 06:34:09;;;;;;;0.75;0.73;;;16.10;49.30;;;;;;21085;6661;302170;31
2023/09/23 06:36:35;;;;;;;1.25;0.70;;;16.40;49.20;;;;;;21082;6661;307177;31
2023/09/23 06:39:00;;;;;;;1.80;0.80;;;16.60;49.10;;;;;;21304;6661;68213;31
2023/09/23 06:41:27;;;;;;;0.93;0.82;;;16.40;49.40;;;;;;21308;6661;66857;31
2023/09/23 06:43:53;;;;;;;1.20;0.73;;;16.10;50.00;;;;;;21100;6659;273091;31
2023/09/23 06:46:18;;;;;;;1.50;1.00;;;16.20;50.10;;;;;;21098;6660;276185;31
2023/09/23 06:48:45;;;;;;;0.70;0.70;;;16.50;49.90;;;;;;21306;6660;66876;31
2023/09/23 06:51:10;;;;;;;2.00;0.80;;;16.40;49.90;;;;;;21099;6660;273087;31
2023/09/23 06:53:36;;;;;;;1.93;0.80;;;16.60;50.40;;;;;;21097;6660;298294;31
2023/09/23 06:56:01;;;;;;;0.83;0.70;;;16.80;50.10;;;;;;21097;6660;302272;31
2023/09/23 06:58:27;;;;;;;0.73;0.73;;;17.00;49.20;;;;;;21098;6660;273477;31
2023/09/23 07:00:54;;;;;;;1.93;0.77;;;17.20;49.40;;;;;;21095;6660;272660;31
2023/09/23 07:03:18;;;;;;;1.03;0.90;;;17.40;49.00;;;;;;21090;6661;301984;31
2023/09/23 07:05:44;;;;;;;1.20;0.80;;;17.50;48.30;;;;;;21317;6661;67710;31
2023/09/23 07:08:09;;;;;;;1.20;0.80;;;17.30;48.60;;;;;;21100;6661;274283;31
2023/09/23 07:10:38;;;;;;;0.73;0.70;;;17.30;49.50;;;;;;21075;6661;302031;31
2023/09/23 07:13:04;;;;;;;0.80;0.80;;;17.40;48.60;;;;;;21090;6661;273445;31
2023/09/23 07:15:29;;;;;;;0.80;0.80;;;17.60;48.30;;;;;;21085;6661;301723;31
2023/09/23 07:17:56;;;;;;;0.43;0.43;;;17.80;47.70;;;;;;21310;6661;66922;31
2023/09/23 07:20:21;;;;;;;1.03;0.90;;;17.60;48.10;;;;;;21310;6661;66896;31
2023/09/23 07:22:47;;;;;;;0.60;0.60;;;17.30;48.80;;;;;;21329;6661;66627;31
2023/09/23 07:25:12;;;;;;;0.80;0.80;;;17.10;49.40;;;;;;21112;6661;305464;31
2023/09/23 07:27:38;;;;;;;1.20;0.70;;;17.20;48.90;;;;;;21298;6661;66827;31
2023/09/23 07:30:04;;;;;;;0.70;0.70;;;17.20;48.90;;;;;;21085;6661;307649;31
2023/09/23 07:32:29;;;;;;;1.23;0.70;;;17.40;49.10;;;;;;21084;6661;273767;31
2023/09/23 07:34:55;;;;;;;0.90;0.90;;;17.80;47.90;;;;;;21310;6661;73192;31
2023/09/23 07:37:20;;;;;;;0.47;0.37;;;17.80;48.20;;;;;;21313;6661;66676;31
2023/09/23 07:39:46;;;;;;;1.27;0.80;;;17.70;48.80;;;;;;21305;6661;66730;31
2023/09/23 07:42:12;;;;;;;2.12;0.65;;;17.60;49.20;;;;;;21316;6661;68577;31
2023/09/23 07:44:37;;;;;;;1.50;0.90;;;17.50;49.50;;;;;;21092;6661;304521;31
2023/09/23 07:47:03;;;;;;;0.60;0.60;;;17.80;48.60;;;;;;21311;6661;69364;31
2023/09/23 07:49:28;;;;;;;1.47;0.90;;;18.00;48.40;;;;;;21096;6661;301869;31
2023/09/23 07:51:56;;;;;;;1.08;0.88;;;18.40;47.10;;;;;;21103;6661;309430;31
2023/09/23 07:54:19;;;;;;;1.23;0.70;;;18.80;47.00;;;;;;21306;6659;67158;31
2023/09/23 07:56:46;;;;;;;1.33;0.70;;;18.90;47.40;;;;;;21097;6660;302245;31
2023/09/23 07:59:10;;;;;;;0.53;0.53;;;19.20;47.20;;;;;;21312;6660;67557;31
2023/09/23 08:01:36;;;;;;;0.50;0.50;;;19.30;47.20;;;;;;21317;6660;88836;31
2023/09/23 08:04:02;;;;;;;1.27;1.00;;;19.20;47.40;;;;;;21093;6660;291828;31
2023/09/23 08:06:27;;;;;;;1.30;0.80;;;19.50;46.50;;;;;;21318;6660;66859;31
2023/09/23 08:08:53;;;;;;;1.37;0.88;;;19.60;46.40;;;;;;21318;6660;66780;31
2023/09/23 08:11:18;;;;;;;1.00;0.90;;;19.50;46.10;;;;;;21307;6660;66406;31
2023/09/23 08:13:44;;;;;;;1.03;0.80;;;19.40;46.10;;;;;;21101;6660;274642;31
2023/09/23 08:16:10;;;;;;;0.82;0.82;;;19.70;45.20;;;;;;21098;6661;303589;31
2023/09/23 08:18:35;;;;;;;1.10;0.80;;;20.20;44.10;;;;;;21315;6661;66426;31
2023/09/23 08:21:01;;;;;;;0.70;0.70;;;20.30;44.50;;;;;;21097;6661;331484;31
2023/09/23 08:23:26;;;;;;;2.22;0.88;;;20.50;42.80;;;;;;21091;6661;302761;31
2023/09/23 08:25:52;;;;;;;0.70;0.70;;;20.80;42.10;;;;;;21095;6661;273182;31
2023/09/23 08:28:18;;;;;;;0.57;0.57;;;21.10;40.80;;;;;;21311;6661;67274;31
2023/09/23 08:30:44;;;;;;;0.70;0.70;;;21.00;41.40;;;;;;21097;6661;276025;31
2023/09/23 08:33:09;;;;;;;0.60;0.60;;;21.10;40.70;;;;;;21310;6661;65560;31
2023/09/23 08:35:35;;;;;;;1.00;0.80;;;21.00;41.50;;;;;;21089;6661;301434;31
2023/09/23 08:38:01;;;;;;;0.90;0.90;;;21.20;40.90;;;;;;21098;6661;282367;31
2023/09/23 08:40:26;;;;;;;0.73;0.70;;;21.50;39.80;;;;;;21096;6661;301564;31
2023/09/23 08:42:53;;;;;;;1.37;0.80;;;21.70;39.10;;;;;;21086;6661;302162;31
2023/09/23 08:45:17;;;;;;;3.87;0.93;;;21.90;39.10;;;;;;21308;6661;67332;31
2023/09/23 08:47:45;;;;;;;0.80;0.70;;;21.70;40.00;;;;;;21086;6661;274009;31
2023/09/23 08:50:09;;;;;;;0.80;0.80;;;21.70;40.30;;;;;;21079;6661;305872;31
2023/09/23 08:52:34;;;;;;;0.90;0.70;;;22.00;39.40;;;;;;21093;6661;301341;31
2023/09/23 08:55:00;;;;;;;0.87;0.70;;;22.10;39.00;;;;;;21085;6661;302444;31
2023/09/23 08:57:25;;;;;;;1.17;0.90;;;22.20;38.70;;;;;;21060;6661;273228;31
2023/09/23 08:59:51;;;;;;;1.05;0.60;;;22.40;38.80;;;;;;21322;6661;69055;31
2023/09/23 09:02:17;;;;;;;0.85;0.82;;;22.30;39.40;;;;;;21092;6661;294371;31
2023/09/23 09:04:42;;;;;;;2.50;0.80;;;22.30;38.10;;;;;;21298;6661;68988;31
2023/09/23 09:07:08;;;;;;;1.00;0.90;;;22.10;38.80;;;;;;21092;6659;302269;31
2023/09/23 09:09:33;;;;;;;1.00;0.90;;;22.10;38.60;;;;;;21313;6660;65887;31
2023/09/23 09:11:59;;;;;;;0.97;0.97;;;21.90;39.10;;;;;;21302;6660;70290;31
2023/09/23 09:14:24;;;;;;;1.20;1.00;;;21.50;39.50;;;;;;21093;6660;306333;31
2023/09/23 09:16:50;;;;;;;1.57;0.90;;;21.40;39.00;;;;;;21300;6660;66443;31
2023/09/23 09:19:15;;;;;;;0.70;0.70;;;21.20;39.30;;;;;;21297;6660;72105;31
2023/09/23 09:21:42;;;;;;;1.48;0.95;;;21.00;39.90;;;;;;21086;6660;302305;31
2023/09/23 09:24:09;;;;;;;1.50;0.80;;;21.10;39.70;;;;;;21301;6660;69573;31
2023/09/23 09:26:35;;;;;;;0.60;0.60;;;21.10;40.30;;;;;;21292;6661;68959;31
2023/09/23 09:28:59;;;;;;;2.57;0.77;;;21.00;40.80;;;;;;21298;6661;66386;31
2023/09/23 09:31:24;;;;;;;0.80;0.80;;;21.00;41.40;;;;;;21087;6661;301992;31
2023/09/23 09:33:52;;;;;;;0.97;0.80;;;21.40;40.00;;;;;;21274;6661;66668;31
2023/09/23 09:36:20;;;;;;;2.33;1.00;;;21.50;39.90;;;;;;21297;6661;66170;31
2023/09/23 09:38:45;;;;;;;1.25;1.02;;;21.40;39.90;;;;;;21082;6661;331994;31
2023/09/23 09:41:11;;;;;;;0.70;0.70;;;21.60;39.00;;;;;;21064;6661;301683;31
2023/09/23 09:43:36;;;;;;;2.15;0.80;;;21.90;38.60;;;;;;21273;6661;67290;31
2023/09/23 09:46:07;;;;;;;1.97;0.93;;;21.90;38.80;;;;;;21284;6661;67916;31
2023/09/23 09:48:30;;;;;;;1.03;0.80;;;21.70;39.00;;;;;;21028;6661;301582;31
2023/09/23 09:50:53;;;;;;;4.27;1.20;;;21.60;38.00;;;;;;21276;6661;65590;31
2023/09/23 09:53:18;;;;;;;1.52;0.98;;;21.40;38.50;;;;;;21078;6661;302134;31
2023/09/23 09:55:44;;;;;;;1.63;0.73;;;21.40;38.20;;;;;;21297;6661;66308;31
2023/09/23 09:58:09;;;;;;;1.05;0.95;;;21.20;38.60;;;;;;21081;6661;277099;31
2023/09/23 10:00:43;;;;;;;1.50;0.90;;;21.20;37.90;;;;;;21295;6661;74317;31
2023/09/23 10:03:08;;;;;;;1.80;1.03;;;21.10;38.60;;;;;;21065;6661;273780;31
2023/09/23 10:05:32;;;;;;;0.97;0.90;;;21.30;39.80;;;;;;21296;6661;66201;31
2023/09/23 10:07:59;;;;;;;1.85;0.95;;;21.30;39.90;;;;;;21302;6661;67346;31
2023/09/23 10:10:39;;;;;;;1.10;0.90;;;21.30;40.30;;;;;;21295;6661;74244;31
2023/09/23 10:13:08;;;;;;;1.12;1.00;;;21.20;40.60;;;;;;21071;6661;306445;31
2023/09/23 10:15:38;;;;;;;1.70;0.70;;;21.60;40.30;;;;;;21220;6661;66933;31
2023/09/23 10:18:03;;;;;;;1.07;0.80;;;21.70;40.00;;;;;;21081;6659;296872;31
2023/09/23 10:20:32;;;;;;;1.33;0.85;;;21.90;38.10;;;;;;21006;6660;301945;31
2023/09/23 10:22:57;;;;;;;1.35;0.88;;;22.20;37.70;;;;;;21085;6660;310511;31
2023/09/23 10:25:23;;;;;;;1.80;1.47;;;22.50;37.60;;;;;;21300;6660;68203;31
2023/09/23 10:27:56;;;;;;;1.00;0.83;;;22.60;38.30;;;;;;21086;6660;302232;31
2023/09/23 10:30:22;;;;;;;1.00;0.90;;;22.70;37.70;;;;;;21073;6660;273298;31
2023/09/23 10:32:46;;;;;;;0.70;0.70;;;23.10;38.10;;;;;;21294;6660;68045;31
2023/09/23 10:35:12;;;;;;;1.67;0.80;;;23.30;37.90;;;;;;21088;6660;277510;31
2023/09/23 10:37:37;;;;;;;0.88;0.88;;;23.40;37.70;;;;;;21079;6661;303012;31
2023/09/23 10:40:09;;;;;;;2.60;0.80;;;23.70;36.10;;;;;;21088;6661;273053;31
2023/09/23 10:42:28;;;;;;;0.95;0.85;;;23.90;36.90;;;;;;21061;6661;273186;31
2023/09/23 10:44:54;;;;;;;2.03;0.90;;;24.10;35.40;;;;;;21074;6661;293031;31
2023/09/23 10:47:20;;;;;;;1.47;1.00;;;24.20;35.80;;;;;;21286;6661;67165;31
2023/09/23 10:49:46;;;;;;;0.70;0.70;;;24.00;36.40;;;;;;21300;6661;66174;31
2023/09/23 10:52:11;;;;;;;1.20;0.70;;;23.80;36.80;;;;;;21297;6661;66893;31
2023/09/23 10:54:37;;;;;;;1.17;0.77;;;23.60;37.30;;;;;;21299;6661;74153;31
2023/09/23 10:57:03;;;;;;;0.80;0.80;;;23.50;37.50;;;;;;21090;6661;273264;31
2023/09/23 10:59:29;;;;;;;1.10;0.93;;;23.60;35.60;;;;;;21088;6661;272893;31
2023/09/23 11:01:58;;;;;;;0.80;0.80;;;23.90;35.70;;;;;;21079;6661;301469;31
2023/09/23 11:04:23;;;;;;;3.80;0.80;;;24.20;34.90;;;;;;21301;6661;66430;31
2023/09/23 11:06:49;;;;;;;1.48;0.90;;;24.00;35.40;;;;;;21303;6661;65640;31
2023/09/23 11:09:14;;;;;;;1.80;0.73;;;23.70;35.80;;;;;;21081;6661;302745;31
2023/09/23 11:11:40;;;;;;;1.73;0.90;;;23.60;34.90;;;;;;21081;6661;303834;31
2023/09/23 11:14:12;;;;;;;3.30;1.00;;;23.60;34.90;;;;;;21078;6661;303931;31
2023/09/23 11:16:38;;;;;;;1.53;0.80;;;23.70;35.00;;;;;;21278;6661;70902;31
2023/09/23 11:19:07;;;;;;;1.00;0.80;;;23.60;35.60;;;;;;21284;6661;66972;31
2023/09/23 11:21:46;;;;;;;1.80;0.97;;;23.30;36.10;;;;;;21079;6661;302043;31
2023/09/23 11:24:11;;;;;;;0.50;0.50;;;23.50;35.80;;;;;;21223;6661;66111;31
2023/09/23 11:26:39;;;;;;;1.07;1.00;;;23.50;35.70;;;;;;21086;6661;301736;31
2023/09/23 11:29:05;;;;;;;0.70;0.70;;;23.70;35.10;;;;;;21304;6659;66331;31
2023/09/23 11:31:32;;;;;;;0.90;0.90;;;23.80;35.40;;;;;;21292;6660;65389;31
2023/09/23 11:33:57;;;;;;;1.40;1.00;;;23.60;35.60;;;;;;21299;6660;66462;31
2023/09/23 11:36:23;;;;;;;1.40;0.87;;;23.50;35.80;;;;;;21081;6660;297156;31
2023/09/23 11:38:49;;;;;;;0.87;0.80;;;23.70;34.40;;;;;;21299;6660;66861;31
2023/09/23 11:41:14;;;;;;;0.80;0.70;;;23.80;34.70;;;;;;21080;6660;276787;31
2023/09/23 11:43:39;;;;;;;1.00;0.75;;;24.00;34.10;;;;;;21083;6660;338480;31
2023/09/23 11:46:05;;;;;;;1.03;0.83;;;24.30;34.30;;;;;;21306;6660;65810;31
2023/09/23 11:48:31;;;;;;;1.02;0.70;;;24.30;35.00;;;;;;21086;6660;276617;31
2023/09/23 11:50:56;;;;;;;2.43;0.80;;;24.40;33.40;;;;;;21282;6661;72126;31
2023/09/23 11:53:24;;;;;;;1.50;0.80;;;24.40;33.80;;;;;;21078;6661;305334;31
2023/09/23 11:55:49;;;;;;;1.13;1.03;;;24.40;31.70;;;;;;21294;6661;65767;31
2023/09/23 11:58:14;;;;;;;1.13;1.00;;;24.30;33.20;;;;;;21298;6661;65452;31
2023/09/23 12:00:40;;;;;;;1.20;1.10;;;24.20;33.50;;;;;;21077;6661;302335;31
2023/09/23 12:03:05;;;;;;;1.10;0.80;;;24.20;33.80;;;;;;21076;6661;336172;31
2023/09/23 12:05:31;;;;;;;0.80;0.80;;;24.50;33.70;;;;;;21298;6661;70097;31
2023/09/23 12:08:00;;;;;;;0.80;0.70;;;24.50;33.60;;;;;;21302;6661;69739;31
2023/09/23 12:10:22;;;;;;;1.77;0.90;;;24.40;34.40;;;;;;21057;6661;301870;31
2023/09/23 12:12:48;;;;;;;2.30;0.90;;;24.50;33.10;;;;;;21079;6661;301964;31
2023/09/23 12:15:14;;;;;;;2.50;1.50;;;24.60;31.90;;;;;;21088;6661;273143;31
2023/09/23 12:17:39;;;;;;;1.40;1.30;;;24.70;32.30;;;;;;21080;6661;289617;31
2023/09/23 12:20:11;;;;;;;9.97;6.13;;;24.70;32.50;;;;;;21301;6661;66944;31
2023/09/23 12:22:30;;;;;;;0.60;0.60;;;24.30;32.90;;;;;;21278;6661;68013;31
2023/09/23 12:24:57;;;;;;;2.67;2.13;;;23.90;33.60;;;;;;21079;6661;300083;31
2023/09/23 12:27:22;;;;;;;1.33;0.80;;;23.80;33.70;;;;;;21295;6661;68828;31
2023/09/23 12:29:48;;;;;;;1.50;0.87;;;23.60;34.10;;;;;;21090;6661;273425;31
2023/09/23 12:32:13;;;;;;;0.80;0.80;;;23.60;34.10;;;;;;21296;6661;65493;31
2023/09/23 12:34:39;;;;;;;2.50;2.30;;;23.40;34.50;;;;;;21296;6661;66146;31
2023/09/23 12:37:04;;;;;;;0.93;0.77;;;23.20;34.90;;;;;;21302;6661;67427;31
2023/09/23 12:39:30;;;;;;;1.95;0.90;;;23.00;35.30;;;;;;21081;6661;307145;31
2023/09/23 12:41:56;;;;;;;0.80;0.63;;;23.20;34.30;;;;;;21305;6659;66288;31